Nearby METAR Reports

 

KHCR - Heber/Russ Mcdon, Utah, USA
Distance from station: SSW 18mi, 29km
Updated: Sun, 14-Jul-2024 2:35pm MDT
Clear
Clear
 Wind from WSW
Wind: WSW 15 mph , 24 km/h, Gust: 21 mph , 33 km/h
Temperature: 93°F , 34°C
Dew Point: 41°F , 5°C
Humidity: 16%
Barometer: 30.22 inHg , 1023.4 hPa
Clouds: Clear
Visibility: 10 miles , 16 km
2024/07/14 20:35 KHCR 142035Z AUTO 24013G18KT 10SM CLR 34/05 A3022 RMK AO2 T03350053
KSLC - Salt Lake City, Utah, USA
Distance from station: W 35mi, 57km
Updated: Sun, 14-Jul-2024 2:54pm MDT
Partly cloudy
Partly cloudy
 Wind from WNW
Wind: WNW 9 mph , 15 km/h
Temperature: 99°F , 37°C
Dew Point: 45°F , 7°C
Humidity: 16%
Barometer: 30.08 inHg , 1018.6 hPa
Clouds: Partly cloudy
Visibility: 10 miles , 16 km
Cloud details: Partly cloudy 11000 ft
Partly cloudy 20000 ft
2024/07/14 20:54 KSLC 142054Z 30008KT 10SM SCT110TCU SCT200 37/07 A3008 RMK AO2 SLP114 VIRGA TCU SW AND DSNT S T03670072 56016
 
KU42 - Salt Lake Muni, Utah, USA
Distance from station: WSW 37mi, 59km
Updated: Sun, 14-Jul-2024 2:55pm MDT
Partly cloudy
Partly cloudy
 Wind from calm
Wind: Calm
Temperature: 95°F , 35°C
Dew Point: 37°F , 3°C
Humidity: 13%
Barometer: 30.13 inHg , 1020.3 hPa
Clouds: Partly cloudy
Visibility: 4 miles , 6 km
Cloud details: Partly cloudy 4300 ft
Partly cloudy 12000 ft
2024/07/14 20:55 KU42 142055Z AUTO 00000KT 4SM SCT043 SCT120 35/03 A3013 RMK AO1 T03500026
KEVW - Evanston, Wyoming, USA
Distance from station: NNE 40mi, 64km
Updated: Sun, 14-Jul-2024 2:53pm MDT
Few Clouds
Few Clouds
 Wind from WSW
Wind: WSW 14 mph , 22 km/h, Gust: 29 mph , 46 km/h
Temperature: 90°F , 32°C
Dew Point: 41°F , 5°C
Humidity: 18%
Barometer: 30.34 inHg , 1027.4 hPa
Clouds: Few Clouds
Visibility: 10 miles , 16 km
Cloud details: Few Clouds 10000 ft
2024/07/14 20:53 KEVW 142053Z AUTO 24012G25KT 210V280 10SM FEW100 32/05 A3034 RMK AO2 PK WND 22032/2010 SLP154 T03170050 57014
 
KPVU - Provo Muni, Utah, USA
Distance from station: SSW 41mi, 67km
Updated: Sun, 14-Jul-2024 2:56pm MDT
Clear
Clear
 Wind from varies
Wind: varies 6 mph , 9 km/h
Temperature: 99°F , 37°C
Dew Point: 45°F , 7°C
Humidity: 16%
Barometer: 30.13 inHg , 1020.3 hPa
Clouds: Clear
Visibility: 10 miles , 16 km
2024/07/14 20:56 KPVU 142056Z VRB05KT 10SM CLR 37/07 A3013 RMK AO2 SLP131 T03670072 56022 $
KHIF - Hill Afb/Ogden, Utah, USA
Distance from station: NW 45mi, 72km
Updated: Sun, 14-Jul-2024 2:55pm MDT
Clear
Clear
 Wind from W
Wind: W 8 mph , 13 km/h
Temperature: 93°F , 34°C
Dew Point: 41°F , 5°C
Humidity: 16%
Barometer: 30.13 inHg , 1020.3 hPa
Clouds: Clear
Visibility: 10 miles , 16 km
2024/07/14 20:55 KHIF 142055Z AUTO 26007KT 10SM CLR 34/05 A3013 RMK AO2 SLP117 T03430048 57014
 
KOGD - Ogden, Utah, USA
Distance from station: NW 50mi, 81km
Updated: Sun, 14-Jul-2024 2:53pm MDT
Clear
Clear
 Wind from WSW
Wind: WSW 9 mph , 15 km/h
Temperature: 99°F , 37°C
Dew Point: 43°F , 6°C
Humidity: 15%
Barometer: 30.11 inHg , 1019.6 hPa
Clouds: Clear
Visibility: 10 miles , 16 km
2024/07/14 20:53 KOGD 142053Z 25008KT 10SM CLR 37/06 A3011 RMK AO2 SLP116 T03720061 56016